Disclaimer

Please do not use the information listed here in-flight or in-navigation, as they are not provided to us by the airports but are provided by volunteers, so they might be outdated.

Search


Regions


Airport information page

Radio informations:
Tower (TWR) - 118.625 MHz
Ground (GND) - 121.85 MHz
Automatic Terminal Information Service (ATIS) - 128.175 MHz
Approach (APP) - 135.0 MHz

Airport informations:
Latitude: 53° 21' 13.48" N
Longitude: 002° 16' 29.82" W
Elevation: 257 feet - 78 meters
Operating hours: N/A
Operating agency: Civil government, landing fees and diplomatic clearance may be required
Timezone: UTC 0(+1DT)
Fuel: Jet A1, without icing nhibitor.

100/130 octane gasoline, leaded, MIL-L-5572F (GREEN)

Runway information:
06R/24L - 9997 x 150 feet< - >3047 x 46 meters
06L/24R - 10000 x 150 feet< - >3048 x 46 meters

Recent METARs:
EGCC 170720Z AUTO VRB03KT 9999 OVC009 08/06 Q1027 TEMPO BKN012
EGCC 170750Z AUTO 08004KT 040V110 9999 BKN009 BKN012 08/06 Q1027 TEMPO BKN012
EGCC 170820Z AUTO 08004KT 020V140 9999 BKN009 08/06 Q1027 TEMPO BKN012

Airport on the map: